Historyczne dane pomiarowe

Dodano dane terminowe – wersja testowa.

Dane z okresu 1951-2019

Wersja bazy: 1.34 [2019-03-16, lista zmian], aktualizacja planowana na 2019-04-15

Dane meteo z obszaru Polski uzyskane na podstawie danych udostępnionych przez Instytut Meteorologii i Gospodarki Wodnej – Państwowy Instytut Badawczy.

 

Wybierz Datę:    

       

TemperaturaWilgotnośćZachmurzenieWiatrCiśnienieWidzialnośćZjawiska
 Data    tng td wb rh cc ccl cl cm ch dir g1 g2 mslp ppp      
1999-08-08 00:00:00 11.5--- 10.3 10.892wxwxwxwx5wx--- 797.4 0.0---wxw1
1999-08-08 01:00:00 11.4--- 10.6 11.095wxwxwx3wx--- 797.1----wx
1999-08-08 02:00:00 11.8--- 11.0 11.395wxwxwx4wx--- 796.2----wx
1999-08-08 03:00:00 11.8--- 11.2 11.596wxwxwx4wx--- 795.9----wxw1
1999-08-08 04:00:00 11.4--- 10.6 10.995wxwxwx4wx--- 795.9----wx
1999-08-08 05:00:00 11.1--- 6.5 8.674wxwxwxwx4wx--- 795.9----wx
1999-08-08 06:00:00 10.7--- 7.1 8.879wxwxwxwxwx4wx--- 795.9 0.8---wxw1
1999-08-08 07:00:00 10.7--- 7.8 9.183wxwxwxwx3wx--- 795.6----wx
1999-08-08 08:00:00 12.5--- 10.8 11.589wxwxwxwx3wx--- 795.6----wx
1999-08-08 09:00:00 12.9--- 9.8 11.181wxwxwxwx4wx--- 795.9----wx
1999-08-08 10:00:00 13.0--- 10.5 11.585wxwxwxwx3wx--- 796.1----wx
1999-08-08 11:00:00 13.4--- 12.5 12.894wxwxwx2wx--- 796.2----wx
1999-08-08 12:00:00 13.6--- 11.9 12.690wxwxwx3wx--- 796.4 0.0---wx
1999-08-08 13:00:00 15.0--- 8.5 11.365wxwxwxwx6wx--- 796.6----wx
1999-08-08 14:00:00 15.7--- 5.3 10.149wxwxwxwx5wx--- 796.7----wx
1999-08-08 15:00:00 15.9--- 5.0 10.148wxwxwxwxwx5wx--- 796.5----wxw1
1999-08-08 16:00:00 15.6--- 8.2 11.562wxwxwxwxwx4wx--- 796.6----wx
1999-08-08 17:00:00 13.7--- 9.2 11.174wxwxwxwx4wx--- 796.6----wx
1999-08-08 18:00:00 11.7--- 10.2 10.890wxwxwxwxwx5wx--- 796.9 0.0---wxw1
1999-08-08 19:00:00 10.9--- 9.5 10.191wxwxwxwxwx7wx--- 797.3----wx
1999-08-08 20:00:00 12.2--- 5.6 8.864wxwxwxwxwx6wx--- 797.6----wx
1999-08-08 21:00:00 12.6--- 2.1 7.549wxwxwx7wx--- 797.8----wx
1999-08-08 22:00:00 13.2--- -2.7 6.233wxwxwx5wx--- 798.2----wx
1999-08-08 23:00:00 13.4--- -3.0 6.231wxwx3wx--- 798.2----wx

 

Źródłem pochodzenia danych jest Instytut Meteorologii i Gospodarki Wodnej – Państwowy Instytut Badawczy. Dane Instytutu Meteorologii i Gospodarki Wodnej – Państwowego Instytutu Badawczego zostały przetworzone.

Dane źródłowe można odnaleźć na stronie https://dane.imgw.pl